sensor_id;sensor_type;location;lat;lon;timestamp;P1;durP1;ratioP1;P2;durP2;ratioP2
11183;SDS011;5648;43.628;22.684;2022-10-17T00:00:42;4.13;;;3.72;;
11183;SDS011;5648;43.628;22.684;2022-10-17T00:03:07;6.40;;;3.80;;
11183;SDS011;5648;43.628;22.684;2022-10-17T00:05:33;5.25;;;4.10;;
11183;SDS011;5648;43.628;22.684;2022-10-17T00:07:58;5.18;;;3.67;;
11183;SDS011;5648;43.628;22.684;2022-10-17T00:10:24;10.20;;;4.00;;
11183;SDS011;5648;43.628;22.684;2022-10-17T00:12:50;5.90;;;3.55;;
11183;SDS011;5648;43.628;22.684;2022-10-17T00:15:17;4.65;;;4.03;;
11183;SDS011;5648;43.628;22.684;2022-10-17T00:17:44;5.15;;;3.83;;
11183;SDS011;5648;43.628;22.684;2022-10-17T00:20:10;6.05;;;3.75;;
11183;SDS011;5648;43.628;22.684;2022-10-17T00:22:36;5.05;;;3.60;;
11183;SDS011;5648;43.628;22.684;2022-10-17T00:25:02;4.18;;;3.58;;
11183;SDS011;5648;43.628;22.684;2022-10-17T00:27:28;4.55;;;3.80;;
11183;SDS011;5648;43.628;22.684;2022-10-17T00:29:54;3.88;;;3.47;;
11183;SDS011;5648;43.628;22.684;2022-10-17T00:32:19;3.85;;;3.17;;
11183;SDS011;5648;43.628;22.684;2022-10-17T00:34:45;4.90;;;3.97;;
11183;SDS011;5648;43.628;22.684;2022-10-17T00:37:10;5.35;;;3.80;;
11183;SDS011;5648;43.628;22.684;2022-10-17T00:39:36;5.80;;;3.88;;
11183;SDS011;5648;43.628;22.684;2022-10-17T00:42:02;6.78;;;3.85;;
11183;SDS011;5648;43.628;22.684;2022-10-17T00:47:01;3.65;;;3.35;;
11183;SDS011;5648;43.628;22.684;2022-10-17T00:49:31;4.60;;;3.60;;
11183;SDS011;5648;43.628;22.684;2022-10-17T00:51:59;4.20;;;3.40;;
11183;SDS011;5648;43.628;22.684;2022-10-17T00:54:32;5.10;;;3.53;;
11183;SDS011;5648;43.628;22.684;2022-10-17T00:57:00;6.00;;;4.07;;
11183;SDS011;5648;43.628;22.684;2022-10-17T00:59:26;7.35;;;3.65;;
11183;SDS011;5648;43.628;22.684;2022-10-17T01:01:59;4.45;;;3.70;;
11183;SDS011;5648;43.628;22.684;2022-10-17T01:04:30;7.13;;;3.75;;
11183;SDS011;5648;43.628;22.684;2022-10-17T01:06:56;4.38;;;3.63;;
11183;SDS011;5648;43.628;22.684;2022-10-17T01:09:21;5.13;;;3.97;;
11183;SDS011;5648;43.628;22.684;2022-10-17T01:11:54;6.63;;;3.85;;
11183;SDS011;5648;43.628;22.684;2022-10-17T01:14:32;5.68;;;4.18;;
11183;SDS011;5648;43.628;22.684;2022-10-17T01:36:00;6.60;;;3.40;;
11183;SDS011;5648;43.628;22.684;2022-10-17T01:38:47;4.30;;;3.60;;
11183;SDS011;5648;43.628;22.684;2022-10-17T01:41:24;4.75;;;3.72;;
11183;SDS011;5648;43.628;22.684;2022-10-17T01:43:52;3.60;;;3.05;;
11183;SDS011;5648;43.628;22.684;2022-10-17T01:46:35;5.90;;;4.15;;
11183;SDS011;5648;43.628;22.684;2022-10-17T01:49:02;3.58;;;3.10;;
11183;SDS011;5648;43.628;22.684;2022-10-17T01:51:32;5.40;;;3.75;;
11183;SDS011;5648;43.628;22.684;2022-10-17T01:54:20;7.28;;;4.18;;
11183;SDS011;5648;43.628;22.684;2022-10-17T01:56:47;7.55;;;3.80;;
11183;SDS011;5648;43.628;22.684;2022-10-17T01:59:24;4.47;;;3.50;;
11183;SDS011;5648;43.628;22.684;2022-10-17T02:01:55;4.10;;;3.55;;
11183;SDS011;5648;43.628;22.684;2022-10-17T02:04:23;4.20;;;3.60;;
11183;SDS011;5648;43.628;22.684;2022-10-17T02:06:52;4.82;;;3.80;;
11183;SDS011;5648;43.628;22.684;2022-10-17T02:11:50;5.90;;;4.00;;
11183;SDS011;5648;43.628;22.684;2022-10-17T02:14:31;5.43;;;3.70;;
11183;SDS011;5648;43.628;22.684;2022-10-17T02:17:22;6.63;;;4.03;;
11183;SDS011;5648;43.628;22.684;2022-10-17T02:28:20;5.03;;;4.47;;
11183;SDS011;5648;43.628;22.684;2022-10-17T02:31:16;6.60;;;3.97;;
11183;SDS011;5648;43.628;22.684;2022-10-17T02:36:19;5.47;;;3.63;;
11183;SDS011;5648;43.628;22.684;2022-10-17T02:39:13;5.45;;;3.90;;
11183;SDS011;5648;43.628;22.684;2022-10-17T02:41:40;6.40;;;3.97;;
11183;SDS011;5648;43.628;22.684;2022-10-17T02:44:08;7.60;;;4.43;;
11183;SDS011;5648;43.628;22.684;2022-10-17T02:46:36;6.15;;;4.28;;
11183;SDS011;5648;43.628;22.684;2022-10-17T02:49:10;6.30;;;4.07;;
11183;SDS011;5648;43.628;22.684;2022-10-17T02:54:38;7.43;;;3.92;;
11183;SDS011;5648;43.628;22.684;2022-10-17T02:57:19;13.60;;;4.63;;
11183;SDS011;5648;43.628;22.684;2022-10-17T02:59:49;5.55;;;3.67;;
11183;SDS011;5648;43.628;22.684;2022-10-17T03:02:15;4.78;;;3.90;;
11183;SDS011;5648;43.628;22.684;2022-10-17T03:04:45;4.20;;;3.53;;
11183;SDS011;5648;43.628;22.684;2022-10-17T03:07:11;5.05;;;4.07;;
11183;SDS011;5648;43.628;22.684;2022-10-17T03:09:37;7.32;;;4.60;;
11183;SDS011;5648;43.628;22.684;2022-10-17T03:12:02;6.45;;;3.75;;
11183;SDS011;5648;43.628;22.684;2022-10-17T03:14:28;5.07;;;3.63;;
11183;SDS011;5648;43.628;22.684;2022-10-17T03:16:54;4.88;;;3.60;;
11183;SDS011;5648;43.628;22.684;2022-10-17T03:19:19;5.63;;;3.90;;
11183;SDS011;5648;43.628;22.684;2022-10-17T03:21:45;5.30;;;3.72;;
11183;SDS011;5648;43.628;22.684;2022-10-17T03:24:10;7.13;;;3.72;;
11183;SDS011;5648;43.628;22.684;2022-10-17T03:26:36;5.63;;;4.13;;
11183;SDS011;5648;43.628;22.684;2022-10-17T03:29:01;5.93;;;3.92;;
11183;SDS011;5648;43.628;22.684;2022-10-17T03:31:27;6.13;;;5.35;;
11183;SDS011;5648;43.628;22.684;2022-10-17T03:33:53;14.73;;;10.82;;
11183;SDS011;5648;43.628;22.684;2022-10-17T03:36:18;16.25;;;8.68;;
11183;SDS011;5648;43.628;22.684;2022-10-17T03:38:44;8.65;;;6.20;;
11183;SDS011;5648;43.628;22.684;2022-10-17T03:41:10;10.10;;;5.68;;
11183;SDS011;5648;43.628;22.684;2022-10-17T03:43:36;5.90;;;4.85;;
11183;SDS011;5648;43.628;22.684;2022-10-17T03:46:02;5.18;;;4.55;;
11183;SDS011;5648;43.628;22.684;2022-10-17T03:48:28;7.05;;;4.93;;
11183;SDS011;5648;43.628;22.684;2022-10-17T03:51:03;6.95;;;4.68;;
11183;SDS011;5648;43.628;22.684;2022-10-17T03:53:29;8.25;;;5.00;;
11183;SDS011;5648;43.628;22.684;2022-10-17T03:55:55;7.20;;;4.78;;
11183;SDS011;5648;43.628;22.684;2022-10-17T03:58:22;5.10;;;4.47;;
11183;SDS011;5648;43.628;22.684;2022-10-17T04:00:47;8.93;;;4.85;;
11183;SDS011;5648;43.628;22.684;2022-10-17T04:03:16;7.38;;;5.30;;
11183;SDS011;5648;43.628;22.684;2022-10-17T04:05:41;5.78;;;5.10;;
11183;SDS011;5648;43.628;22.684;2022-10-17T04:08:06;11.05;;;5.75;;
11183;SDS011;5648;43.628;22.684;2022-10-17T04:10:32;7.40;;;5.25;;
11183;SDS011;5648;43.628;22.684;2022-10-17T04:12:57;7.95;;;5.60;;
11183;SDS011;5648;43.628;22.684;2022-10-17T04:15:23;7.10;;;4.90;;
11183;SDS011;5648;43.628;22.684;2022-10-17T04:17:49;7.95;;;5.35;;
11183;SDS011;5648;43.628;22.684;2022-10-17T04:20:14;7.38;;;4.78;;
11183;SDS011;5648;43.628;22.684;2022-10-17T04:22:40;5.93;;;5.22;;
11183;SDS011;5648;43.628;22.684;2022-10-17T04:25:05;8.20;;;5.80;;
11183;SDS011;5648;43.628;22.684;2022-10-17T04:27:31;11.13;;;6.80;;
11183;SDS011;5648;43.628;22.684;2022-10-17T04:29:56;7.28;;;6.20;;
11183;SDS011;5648;43.628;22.684;2022-10-17T04:32:22;7.80;;;5.50;;
11183;SDS011;5648;43.628;22.684;2022-10-17T04:34:47;7.25;;;5.35;;
11183;SDS011;5648;43.628;22.684;2022-10-17T04:37:14;9.48;;;5.28;;
11183;SDS011;5648;43.628;22.684;2022-10-17T04:39:39;8.98;;;5.65;;
11183;SDS011;5648;43.628;22.684;2022-10-17T04:42:05;5.55;;;4.82;;
11183;SDS011;5648;43.628;22.684;2022-10-17T04:44:30;9.00;;;4.35;;
11183;SDS011;5648;43.628;22.684;2022-10-17T04:46:57;7.13;;;4.55;;
11183;SDS011;5648;43.628;22.684;2022-10-17T04:49:23;7.40;;;4.82;;
11183;SDS011;5648;43.628;22.684;2022-10-17T04:51:48;5.35;;;4.80;;
11183;SDS011;5648;43.628;22.684;2022-10-17T04:54:14;11.55;;;5.97;;
11183;SDS011;5648;43.628;22.684;2022-10-17T04:56:39;6.88;;;5.55;;
11183;SDS011;5648;43.628;22.684;2022-10-17T04:59:05;8.93;;;5.85;;
11183;SDS011;5648;43.628;22.684;2022-10-17T05:01:30;5.55;;;5.00;;
11183;SDS011;5648;43.628;22.684;2022-10-17T05:03:56;6.13;;;4.88;;
11183;SDS011;5648;43.628;22.684;2022-10-17T05:06:22;9.15;;;4.97;;
11183;SDS011;5648;43.628;22.684;2022-10-17T05:08:49;6.20;;;5.57;;
11183;SDS011;5648;43.628;22.684;2022-10-17T05:11:16;6.20;;;4.95;;
11183;SDS011;5648;43.628;22.684;2022-10-17T05:13:52;6.15;;;5.18;;
11183;SDS011;5648;43.628;22.684;2022-10-17T05:16:19;10.90;;;5.97;;
11183;SDS011;5648;43.628;22.684;2022-10-17T05:18:49;10.77;;;7.18;;
11183;SDS011;5648;43.628;22.684;2022-10-17T05:21:15;7.88;;;6.38;;
11183;SDS011;5648;43.628;22.684;2022-10-17T05:23:41;9.02;;;6.15;;
11183;SDS011;5648;43.628;22.684;2022-10-17T05:26:06;7.40;;;5.90;;
11183;SDS011;5648;43.628;22.684;2022-10-17T05:28:32;7.93;;;6.35;;
11183;SDS011;5648;43.628;22.684;2022-10-17T05:31:01;10.35;;;5.78;;
11183;SDS011;5648;43.628;22.684;2022-10-17T05:33:30;7.13;;;5.47;;
11183;SDS011;5648;43.628;22.684;2022-10-17T05:35:55;5.97;;;5.18;;
11183;SDS011;5648;43.628;22.684;2022-10-17T05:38:21;12.10;;;5.60;;
11183;SDS011;5648;43.628;22.684;2022-10-17T05:40:47;6.85;;;4.80;;
11183;SDS011;5648;43.628;22.684;2022-10-17T05:43:12;7.43;;;4.45;;
11183;SDS011;5648;43.628;22.684;2022-10-17T05:45:39;8.77;;;3.97;;
11183;SDS011;5648;43.628;22.684;2022-10-17T05:48:04;6.22;;;4.30;;
11183;SDS011;5648;43.628;22.684;2022-10-17T05:50:30;4.90;;;3.88;;
11183;SDS011;5648;43.628;22.684;2022-10-17T05:52:56;7.93;;;5.10;;
11183;SDS011;5648;43.628;22.684;2022-10-17T05:55:22;6.13;;;4.10;;
11183;SDS011;5648;43.628;22.684;2022-10-17T05:57:48;6.45;;;4.35;;
11183;SDS011;5648;43.628;22.684;2022-10-17T06:00:14;5.65;;;3.90;;
11183;SDS011;5648;43.628;22.684;2022-10-17T06:02:40;6.22;;;3.85;;
11183;SDS011;5648;43.628;22.684;2022-10-17T06:05:06;8.27;;;4.13;;
11183;SDS011;5648;43.628;22.684;2022-10-17T06:07:32;5.05;;;3.95;;
11183;SDS011;5648;43.628;22.684;2022-10-17T06:09:57;6.25;;;4.05;;
11183;SDS011;5648;43.628;22.684;2022-10-17T06:12:23;5.50;;;4.15;;
11183;SDS011;5648;43.628;22.684;2022-10-17T06:14:49;6.05;;;4.78;;
11183;SDS011;5648;43.628;22.684;2022-10-17T06:17:14;6.07;;;3.85;;
11183;SDS011;5648;43.628;22.684;2022-10-17T06:19:40;7.80;;;4.57;;
11183;SDS011;5648;43.628;22.684;2022-10-17T06:22:06;6.22;;;3.70;;
11183;SDS011;5648;43.628;22.684;2022-10-17T06:24:31;4.68;;;3.35;;
11183;SDS011;5648;43.628;22.684;2022-10-17T06:26:57;5.20;;;4.10;;
11183;SDS011;5648;43.628;22.684;2022-10-17T06:29:23;6.32;;;4.65;;
11183;SDS011;5648;43.628;22.684;2022-10-17T06:31:48;11.68;;;4.60;;
11183;SDS011;5648;43.628;22.684;2022-10-17T06:34:14;13.20;;;5.13;;
11183;SDS011;5648;43.628;22.684;2022-10-17T06:36:39;9.18;;;4.18;;
11183;SDS011;5648;43.628;22.684;2022-10-17T06:39:05;8.63;;;3.85;;
11183;SDS011;5648;43.628;22.684;2022-10-17T06:41:30;5.30;;;3.38;;
11183;SDS011;5648;43.628;22.684;2022-10-17T06:43:55;9.55;;;4.00;;
11183;SDS011;5648;43.628;22.684;2022-10-17T06:46:21;6.88;;;4.07;;
11183;SDS011;5648;43.628;22.684;2022-10-17T06:48:49;4.97;;;3.97;;
11183;SDS011;5648;43.628;22.684;2022-10-17T06:51:14;8.48;;;5.45;;
11183;SDS011;5648;43.628;22.684;2022-10-17T06:53:40;9.40;;;6.00;;
11183;SDS011;5648;43.628;22.684;2022-10-17T06:56:07;12.80;;;6.40;;
11183;SDS011;5648;43.628;22.684;2022-10-17T06:58:34;18.05;;;9.05;;
11183;SDS011;5648;43.628;22.684;2022-10-17T07:01:12;14.20;;;7.82;;
11183;SDS011;5648;43.628;22.684;2022-10-17T07:03:38;9.00;;;6.00;;
11183;SDS011;5648;43.628;22.684;2022-10-17T07:06:04;7.53;;;5.60;;
11183;SDS011;5648;43.628;22.684;2022-10-17T07:08:31;10.02;;;5.10;;
11183;SDS011;5648;43.628;22.684;2022-10-17T07:11:07;5.75;;;3.40;;
11183;SDS011;5648;43.628;22.684;2022-10-17T07:13:37;13.60;;;3.78;;
11183;SDS011;5648;43.628;22.684;2022-10-17T07:16:03;5.47;;;3.50;;
11183;SDS011;5648;43.628;22.684;2022-10-17T07:18:29;6.38;;;3.63;;
11183;SDS011;5648;43.628;22.684;2022-10-17T07:20:54;4.82;;;3.92;;
11183;SDS011;5648;43.628;22.684;2022-10-17T07:23:20;5.95;;;3.72;;
11183;SDS011;5648;43.628;22.684;2022-10-17T07:25:46;7.60;;;4.40;;
11183;SDS011;5648;43.628;22.684;2022-10-17T07:28:13;11.23;;;8.52;;
11183;SDS011;5648;43.628;22.684;2022-10-17T07:30:39;12.50;;;6.93;;
11183;SDS011;5648;43.628;22.684;2022-10-17T07:33:04;10.43;;;6.63;;
11183;SDS011;5648;43.628;22.684;2022-10-17T07:35:30;12.63;;;7.75;;
11183;SDS011;5648;43.628;22.684;2022-10-17T07:37:55;10.93;;;7.85;;
11183;SDS011;5648;43.628;22.684;2022-10-17T07:40:21;27.48;;;14.20;;
11183;SDS011;5648;43.628;22.684;2022-10-17T07:42:46;21.38;;;11.43;;
11183;SDS011;5648;43.628;22.684;2022-10-17T07:45:12;17.42;;;8.70;;
11183;SDS011;5648;43.628;22.684;2022-10-17T07:47:37;43.50;;;20.83;;
11183;SDS011;5648;43.628;22.684;2022-10-17T07:50:03;21.38;;;11.27;;
11183;SDS011;5648;43.628;22.684;2022-10-17T07:52:29;22.65;;;9.68;;
11183;SDS011;5648;43.628;22.684;2022-10-17T07:54:55;11.50;;;6.32;;
11183;SDS011;5648;43.628;22.684;2022-10-17T07:57:21;13.88;;;8.38;;
11183;SDS011;5648;43.628;22.684;2022-10-17T07:59:46;12.07;;;7.38;;
11183;SDS011;5648;43.628;22.684;2022-10-17T08:02:25;14.13;;;7.20;;
11183;SDS011;5648;43.628;22.684;2022-10-17T08:04:51;11.32;;;6.43;;
11183;SDS011;5648;43.628;22.684;2022-10-17T08:07:18;11.57;;;5.72;;
11183;SDS011;5648;43.628;22.684;2022-10-17T08:09:44;15.95;;;6.32;;
11183;SDS011;5648;43.628;22.684;2022-10-17T08:12:10;5.55;;;4.25;;
11183;SDS011;5648;43.628;22.684;2022-10-17T08:14:36;10.77;;;4.00;;
11183;SDS011;5648;43.628;22.684;2022-10-17T08:17:03;7.22;;;3.83;;
11183;SDS011;5648;43.628;22.684;2022-10-17T08:19:28;4.78;;;4.13;;
11183;SDS011;5648;43.628;22.684;2022-10-17T08:21:54;4.65;;;3.92;;
11183;SDS011;5648;43.628;22.684;2022-10-17T08:24:21;6.05;;;4.13;;
11183;SDS011;5648;43.628;22.684;2022-10-17T08:26:46;7.60;;;5.38;;
11183;SDS011;5648;43.628;22.684;2022-10-17T08:29:13;14.77;;;5.15;;
11183;SDS011;5648;43.628;22.684;2022-10-17T08:31:39;14.50;;;4.80;;
11183;SDS011;5648;43.628;22.684;2022-10-17T08:34:04;8.90;;;4.82;;
11183;SDS011;5648;43.628;22.684;2022-10-17T08:36:30;6.20;;;4.22;;
11183;SDS011;5648;43.628;22.684;2022-10-17T08:38:56;5.05;;;3.70;;
11183;SDS011;5648;43.628;22.684;2022-10-17T08:46:31;6.65;;;3.70;;
11183;SDS011;5648;43.628;22.684;2022-10-17T08:49:03;9.60;;;5.53;;
11183;SDS011;5648;43.628;22.684;2022-10-17T08:51:46;16.95;;;5.32;;
11183;SDS011;5648;43.628;22.684;2022-10-17T08:54:22;8.48;;;4.53;;
11183;SDS011;5648;43.628;22.684;2022-10-17T08:57:07;7.35;;;4.43;;
11183;SDS011;5648;43.628;22.684;2022-10-17T08:59:42;7.18;;;4.18;;
11183;SDS011;5648;43.628;22.684;2022-10-17T09:19:33;10.13;;;7.70;;
11183;SDS011;5648;43.628;22.684;2022-10-17T09:22:23;7.85;;;4.85;;
11183;SDS011;5648;43.628;22.684;2022-10-17T09:24:56;9.35;;;3.58;;
11183;SDS011;5648;43.628;22.684;2022-10-17T09:27:40;7.70;;;2.22;;
11183;SDS011;5648;43.628;22.684;2022-10-17T09:32:57;14.82;;;7.28;;
11183;SDS011;5648;43.628;22.684;2022-10-17T09:35:23;6.80;;;3.30;;
11183;SDS011;5648;43.628;22.684;2022-10-17T09:37:51;8.48;;;5.65;;
11183;SDS011;5648;43.628;22.684;2022-10-17T09:40:21;9.63;;;5.68;;
11183;SDS011;5648;43.628;22.684;2022-10-17T09:42:50;16.92;;;12.75;;
11183;SDS011;5648;43.628;22.684;2022-10-17T09:45:18;6.75;;;3.90;;
11183;SDS011;5648;43.628;22.684;2022-10-17T09:48:09;8.23;;;3.60;;
11183;SDS011;5648;43.628;22.684;2022-10-17T09:50:41;28.00;;;17.55;;
11183;SDS011;5648;43.628;22.684;2022-10-17T09:53:12;17.02;;;7.30;;
11183;SDS011;5648;43.628;22.684;2022-10-17T09:55:52;28.52;;;8.77;;
11183;SDS011;5648;43.628;22.684;2022-10-17T09:58:21;7.32;;;4.43;;
11183;SDS011;5648;43.628;22.684;2022-10-17T10:00:47;23.63;;;11.57;;
11183;SDS011;5648;43.628;22.684;2022-10-17T10:03:22;7.93;;;3.13;;
11183;SDS011;5648;43.628;22.684;2022-10-17T10:08:32;7.72;;;5.78;;
11183;SDS011;5648;43.628;22.684;2022-10-17T10:11:03;5.07;;;3.65;;
11183;SDS011;5648;43.628;22.684;2022-10-17T10:13:32;4.90;;;4.40;;
11183;SDS011;5648;43.628;22.684;2022-10-17T10:18:41;6.68;;;5.00;;
11183;SDS011;5648;43.628;22.684;2022-10-17T10:26:40;10.60;;;6.30;;
11183;SDS011;5648;43.628;22.684;2022-10-17T10:31:49;6.95;;;3.92;;
11183;SDS011;5648;43.628;22.684;2022-10-17T10:34:18;9.38;;;5.68;;
11183;SDS011;5648;43.628;22.684;2022-10-17T10:39:23;9.52;;;6.25;;
11183;SDS011;5648;43.628;22.684;2022-10-17T10:41:52;13.00;;;10.70;;
11183;SDS011;5648;43.628;22.684;2022-10-17T10:44:19;7.68;;;6.13;;
11183;SDS011;5648;43.628;22.684;2022-10-17T10:46:48;6.00;;;5.10;;
11183;SDS011;5648;43.628;22.684;2022-10-17T10:49:31;11.25;;;6.90;;
11183;SDS011;5648;43.628;22.684;2022-10-17T10:51:57;10.18;;;7.18;;
11183;SDS011;5648;43.628;22.684;2022-10-17T10:54:28;9.63;;;5.85;;
11183;SDS011;5648;43.628;22.684;2022-10-17T10:57:03;8.25;;;5.80;;
11183;SDS011;5648;43.628;22.684;2022-10-17T10:59:35;9.52;;;6.28;;
11183;SDS011;5648;43.628;22.684;2022-10-17T11:10:43;7.15;;;5.28;;
11183;SDS011;5648;43.628;22.684;2022-10-17T11:13:30;7.53;;;5.10;;
11183;SDS011;5648;43.628;22.684;2022-10-17T11:18:41;8.70;;;5.10;;
11183;SDS011;5648;43.628;22.684;2022-10-17T11:21:15;6.47;;;4.97;;
11183;SDS011;5648;43.628;22.684;2022-10-17T11:24:14;6.70;;;4.85;;
11183;SDS011;5648;43.628;22.684;2022-10-17T11:26:55;10.88;;;6.18;;
11183;SDS011;5648;43.628;22.684;2022-10-17T11:29:27;7.07;;;5.53;;
11183;SDS011;5648;43.628;22.684;2022-10-17T11:31:55;6.55;;;5.40;;
11183;SDS011;5648;43.628;22.684;2022-10-17T11:34:25;8.48;;;5.60;;
11183;SDS011;5648;43.628;22.684;2022-10-17T11:36:55;8.55;;;5.53;;
11183;SDS011;5648;43.628;22.684;2022-10-17T11:39:32;7.93;;;6.10;;
11183;SDS011;5648;43.628;22.684;2022-10-17T11:42:13;6.55;;;4.63;;
11183;SDS011;5648;43.628;22.684;2022-10-17T11:44:43;5.30;;;4.78;;
11183;SDS011;5648;43.628;22.684;2022-10-17T11:47:25;7.97;;;4.65;;
11183;SDS011;5648;43.628;22.684;2022-10-17T11:49:59;6.88;;;5.20;;
11183;SDS011;5648;43.628;22.684;2022-10-17T11:55:09;13.68;;;5.28;;
11183;SDS011;5648;43.628;22.684;2022-10-17T12:00:33;10.98;;;5.05;;
11183;SDS011;5648;43.628;22.684;2022-10-17T12:13:58;7.43;;;4.78;;
11183;SDS011;5648;43.628;22.684;2022-10-17T12:22:16;6.47;;;4.72;;
11183;SDS011;5648;43.628;22.684;2022-10-17T12:25:03;6.97;;;4.70;;
11183;SDS011;5648;43.628;22.684;2022-10-17T12:29:57;5.63;;;4.10;;
11183;SDS011;5648;43.628;22.684;2022-10-17T12:32:27;7.78;;;4.85;;
11183;SDS011;5648;43.628;22.684;2022-10-17T12:34:53;18.73;;;5.30;;
11183;SDS011;5648;43.628;22.684;2022-10-17T12:42:59;8.00;;;4.05;;
11183;SDS011;5648;43.628;22.684;2022-10-17T12:50:59;5.75;;;3.63;;
11183;SDS011;5648;43.628;22.684;2022-10-17T12:53:38;4.15;;;3.58;;
11183;SDS011;5648;43.628;22.684;2022-10-17T12:56:16;6.72;;;4.00;;
11183;SDS011;5648;43.628;22.684;2022-10-17T12:58:47;4.75;;;4.10;;
11183;SDS011;5648;43.628;22.684;2022-10-17T13:01:21;4.80;;;3.35;;
11183;SDS011;5648;43.628;22.684;2022-10-17T13:03:51;6.40;;;4.00;;
11183;SDS011;5648;43.628;22.684;2022-10-17T13:06:19;4.03;;;3.63;;
11183;SDS011;5648;43.628;22.684;2022-10-17T13:09:02;4.13;;;3.38;;
11183;SDS011;5648;43.628;22.684;2022-10-17T13:11:30;7.28;;;3.17;;
11183;SDS011;5648;43.628;22.684;2022-10-17T13:13:59;3.45;;;3.15;;
11183;SDS011;5648;43.628;22.684;2022-10-17T13:18:57;4.03;;;3.17;;
11183;SDS011;5648;43.628;22.684;2022-10-17T13:21:24;5.35;;;3.30;;
11183;SDS011;5648;43.628;22.684;2022-10-17T13:23:50;5.40;;;3.40;;
11183;SDS011;5648;43.628;22.684;2022-10-17T13:28:45;4.82;;;3.63;;
11183;SDS011;5648;43.628;22.684;2022-10-17T13:31:31;4.82;;;3.05;;
11183;SDS011;5648;43.628;22.684;2022-10-17T13:33:59;9.45;;;3.60;;
11183;SDS011;5648;43.628;22.684;2022-10-17T13:36:26;6.65;;;3.22;;
11183;SDS011;5648;43.628;22.684;2022-10-17T13:38:54;6.47;;;3.22;;
11183;SDS011;5648;43.628;22.684;2022-10-17T13:41:23;4.85;;;3.47;;
11183;SDS011;5648;43.628;22.684;2022-10-17T13:43:52;3.30;;;3.00;;
11183;SDS011;5648;43.628;22.684;2022-10-17T13:46:28;3.80;;;2.90;;
11183;SDS011;5648;43.628;22.684;2022-10-17T13:48:56;5.97;;;3.42;;
11183;SDS011;5648;43.628;22.684;2022-10-17T13:51:24;8.68;;;3.60;;
11183;SDS011;5648;43.628;22.684;2022-10-17T13:53:51;3.97;;;3.08;;
11183;SDS011;5648;43.628;22.684;2022-10-17T13:56:22;5.05;;;3.28;;
11183;SDS011;5648;43.628;22.684;2022-10-17T13:58:53;6.00;;;3.65;;
11183;SDS011;5648;43.628;22.684;2022-10-17T14:01:52;3.53;;;3.22;;
11183;SDS011;5648;43.628;22.684;2022-10-17T14:04:23;6.40;;;3.47;;
11183;SDS011;5648;43.628;22.684;2022-10-17T14:06:49;7.40;;;3.58;;
11183;SDS011;5648;43.628;22.684;2022-10-17T14:09:25;5.97;;;3.33;;
11183;SDS011;5648;43.628;22.684;2022-10-17T14:11:58;5.13;;;3.75;;
11183;SDS011;5648;43.628;22.684;2022-10-17T14:14:27;3.60;;;3.30;;
11183;SDS011;5648;43.628;22.684;2022-10-17T14:16:53;5.55;;;3.72;;
11183;SDS011;5648;43.628;22.684;2022-10-17T14:21:52;9.00;;;3.38;;
11183;SDS011;5648;43.628;22.684;2022-10-17T14:24:38;4.20;;;2.92;;
11183;SDS011;5648;43.628;22.684;2022-10-17T14:27:28;4.93;;;3.35;;
11183;SDS011;5648;43.628;22.684;2022-10-17T14:29:58;4.60;;;3.13;;
11183;SDS011;5648;43.628;22.684;2022-10-17T14:32:28;5.90;;;4.00;;
11183;SDS011;5648;43.628;22.684;2022-10-17T14:34:56;3.80;;;3.40;;
11183;SDS011;5648;43.628;22.684;2022-10-17T14:40:13;3.35;;;3.00;;
11183;SDS011;5648;43.628;22.684;2022-10-17T14:42:41;5.28;;;3.53;;
11183;SDS011;5648;43.628;22.684;2022-10-17T14:45:12;5.82;;;3.83;;
11183;SDS011;5648;43.628;22.684;2022-10-17T14:47:47;9.10;;;2.78;;
11183;SDS011;5648;43.628;22.684;2022-10-17T14:52:39;4.97;;;3.30;;
11183;SDS011;5648;43.628;22.684;2022-10-17T14:55:24;3.58;;;3.22;;
11183;SDS011;5648;43.628;22.684;2022-10-17T14:57:51;4.18;;;3.30;;
11183;SDS011;5648;43.628;22.684;2022-10-17T15:00:17;6.05;;;3.60;;
11183;SDS011;5648;43.628;22.684;2022-10-17T15:02:45;4.00;;;3.00;;
11183;SDS011;5648;43.628;22.684;2022-10-17T15:05:11;5.05;;;3.55;;
11183;SDS011;5648;43.628;22.684;2022-10-17T15:07:37;5.30;;;3.35;;
11183;SDS011;5648;43.628;22.684;2022-10-17T15:10:03;4.68;;;3.50;;
11183;SDS011;5648;43.628;22.684;2022-10-17T15:12:29;5.13;;;3.35;;
11183;SDS011;5648;43.628;22.684;2022-10-17T15:14:55;5.65;;;4.18;;
11183;SDS011;5648;43.628;22.684;2022-10-17T15:17:25;6.80;;;4.05;;
11183;SDS011;5648;43.628;22.684;2022-10-17T15:19:52;4.38;;;3.22;;
11183;SDS011;5648;43.628;22.684;2022-10-17T15:22:19;4.68;;;3.35;;
11183;SDS011;5648;43.628;22.684;2022-10-17T15:24:45;6.28;;;3.90;;
11183;SDS011;5648;43.628;22.684;2022-10-17T15:27:17;4.78;;;3.63;;
11183;SDS011;5648;43.628;22.684;2022-10-17T15:29:44;6.20;;;3.40;;
11183;SDS011;5648;43.628;22.684;2022-10-17T15:32:11;7.15;;;3.85;;
11183;SDS011;5648;43.628;22.684;2022-10-17T15:34:36;5.60;;;3.78;;
11183;SDS011;5648;43.628;22.684;2022-10-17T15:37:02;3.78;;;3.38;;
11183;SDS011;5648;43.628;22.684;2022-10-17T15:39:29;8.00;;;4.22;;
11183;SDS011;5648;43.628;22.684;2022-10-17T15:41:54;6.15;;;4.03;;
11183;SDS011;5648;43.628;22.684;2022-10-17T15:44:20;4.88;;;3.45;;
11183;SDS011;5648;43.628;22.684;2022-10-17T15:46:45;3.92;;;3.30;;
11183;SDS011;5648;43.628;22.684;2022-10-17T15:49:15;4.18;;;3.78;;
11183;SDS011;5648;43.628;22.684;2022-10-17T15:51:43;5.93;;;3.53;;
11183;SDS011;5648;43.628;22.684;2022-10-17T15:54:09;14.38;;;4.15;;
11183;SDS011;5648;43.628;22.684;2022-10-17T15:56:48;4.95;;;3.80;;
11183;SDS011;5648;43.628;22.684;2022-10-17T15:59:19;5.25;;;3.88;;
11183;SDS011;5648;43.628;22.684;2022-10-17T16:01:48;6.40;;;4.38;;
11183;SDS011;5648;43.628;22.684;2022-10-17T16:04:14;5.72;;;3.90;;
11183;SDS011;5648;43.628;22.684;2022-10-17T16:06:42;6.88;;;3.88;;
11183;SDS011;5648;43.628;22.684;2022-10-17T16:09:08;5.53;;;3.85;;
11183;SDS011;5648;43.628;22.684;2022-10-17T16:11:35;5.18;;;4.32;;
11183;SDS011;5648;43.628;22.684;2022-10-17T16:14:03;8.25;;;4.25;;
11183;SDS011;5648;43.628;22.684;2022-10-17T16:16:31;9.07;;;4.70;;
11183;SDS011;5648;43.628;22.684;2022-10-17T16:18:56;4.65;;;4.13;;
11183;SDS011;5648;43.628;22.684;2022-10-17T16:21:23;6.47;;;3.80;;
11183;SDS011;5648;43.628;22.684;2022-10-17T16:23:50;5.68;;;4.05;;
11183;SDS011;5648;43.628;22.684;2022-10-17T16:26:16;7.97;;;4.53;;
11183;SDS011;5648;43.628;22.684;2022-10-17T16:28:42;6.60;;;4.28;;
11183;SDS011;5648;43.628;22.684;2022-10-17T16:31:24;8.85;;;5.03;;
11183;SDS011;5648;43.628;22.684;2022-10-17T16:33:53;12.93;;;5.00;;
11183;SDS011;5648;43.628;22.684;2022-10-17T16:36:19;5.90;;;4.80;;
11183;SDS011;5648;43.628;22.684;2022-10-17T16:38:45;11.90;;;4.97;;
11183;SDS011;5648;43.628;22.684;2022-10-17T16:41:22;13.68;;;6.65;;
11183;SDS011;5648;43.628;22.684;2022-10-17T16:43:48;11.27;;;6.57;;
11183;SDS011;5648;43.628;22.684;2022-10-17T16:46:14;19.35;;;9.18;;
11183;SDS011;5648;43.628;22.684;2022-10-17T16:48:41;17.35;;;10.65;;
11183;SDS011;5648;43.628;22.684;2022-10-17T16:51:08;22.98;;;9.18;;
11183;SDS011;5648;43.628;22.684;2022-10-17T16:53:34;24.25;;;9.00;;
11183;SDS011;5648;43.628;22.684;2022-10-17T16:56:03;17.52;;;8.27;;
11183;SDS011;5648;43.628;22.684;2022-10-17T16:58:30;23.05;;;11.65;;
11183;SDS011;5648;43.628;22.684;2022-10-17T17:01:03;22.08;;;12.52;;
11183;SDS011;5648;43.628;22.684;2022-10-17T17:03:38;16.35;;;9.43;;
11183;SDS011;5648;43.628;22.684;2022-10-17T17:06:06;11.55;;;7.85;;
11183;SDS011;5648;43.628;22.684;2022-10-17T17:08:33;12.73;;;6.40;;
11183;SDS011;5648;43.628;22.684;2022-10-17T17:11:01;15.90;;;9.75;;
11183;SDS011;5648;43.628;22.684;2022-10-17T17:13:27;11.60;;;8.20;;
11183;SDS011;5648;43.628;22.684;2022-10-17T17:16:13;8.25;;;5.40;;